sensor_id;sensor_type;location;lat;lon;timestamp;P1;durP1;ratioP1;P2;durP2;ratioP2
5349;SDS011;2697;42.144;24.794;2023-05-07T00:00:12;9.50;;;5.60;;
5349;SDS011;2697;42.144;24.794;2023-05-07T00:02:40;9.60;;;5.37;;
5349;SDS011;2697;42.144;24.794;2023-05-07T00:05:06;11.67;;;6.53;;
5349;SDS011;2697;42.144;24.794;2023-05-07T00:07:32;20.53;;;6.90;;
5349;SDS011;2697;42.144;24.794;2023-05-07T00:09:57;18.90;;;8.10;;
5349;SDS011;2697;42.144;24.794;2023-05-07T00:12:23;11.97;;;7.50;;
5349;SDS011;2697;42.144;24.794;2023-05-07T00:14:48;14.60;;;7.73;;
5349;SDS011;2697;42.144;24.794;2023-05-07T00:17:13;18.43;;;6.93;;
5349;SDS011;2697;42.144;24.794;2023-05-07T00:19:39;10.53;;;6.73;;
5349;SDS011;2697;42.144;24.794;2023-05-07T00:22:04;11.63;;;7.17;;
5349;SDS011;2697;42.144;24.794;2023-05-07T00:24:29;14.20;;;6.23;;
5349;SDS011;2697;42.144;24.794;2023-05-07T00:26:55;12.10;;;6.00;;
5349;SDS011;2697;42.144;24.794;2023-05-07T00:29:20;11.90;;;6.70;;
5349;SDS011;2697;42.144;24.794;2023-05-07T00:31:45;11.03;;;6.60;;
5349;SDS011;2697;42.144;24.794;2023-05-07T00:34:11;11.50;;;7.17;;
5349;SDS011;2697;42.144;24.794;2023-05-07T00:36:36;12.20;;;5.97;;
5349;SDS011;2697;42.144;24.794;2023-05-07T00:39:01;9.50;;;6.30;;
5349;SDS011;2697;42.144;24.794;2023-05-07T00:41:28;12.43;;;5.67;;
5349;SDS011;2697;42.144;24.794;2023-05-07T00:43:55;12.07;;;6.07;;
5349;SDS011;2697;42.144;24.794;2023-05-07T00:46:21;8.27;;;6.27;;
5349;SDS011;2697;42.144;24.794;2023-05-07T00:48:47;12.80;;;6.80;;
5349;SDS011;2697;42.144;24.794;2023-05-07T00:51:14;10.27;;;6.70;;
5349;SDS011;2697;42.144;24.794;2023-05-07T00:53:40;12.63;;;7.43;;
5349;SDS011;2697;42.144;24.794;2023-05-07T00:56:06;10.57;;;6.70;;
5349;SDS011;2697;42.144;24.794;2023-05-07T00:58:32;9.83;;;6.40;;
5349;SDS011;2697;42.144;24.794;2023-05-07T01:00:58;17.77;;;6.97;;
5349;SDS011;2697;42.144;24.794;2023-05-07T01:03:24;11.40;;;7.50;;
5349;SDS011;2697;42.144;24.794;2023-05-07T01:05:49;10.57;;;6.60;;
5349;SDS011;2697;42.144;24.794;2023-05-07T01:08:16;9.77;;;6.43;;
5349;SDS011;2697;42.144;24.794;2023-05-07T01:10:42;16.80;;;7.53;;
5349;SDS011;2697;42.144;24.794;2023-05-07T01:13:09;12.37;;;6.80;;
5349;SDS011;2697;42.144;24.794;2023-05-07T01:15:35;11.10;;;6.80;;
5349;SDS011;2697;42.144;24.794;2023-05-07T01:18:01;14.10;;;6.50;;
5349;SDS011;2697;42.144;24.794;2023-05-07T01:20:28;7.50;;;6.27;;
5349;SDS011;2697;42.144;24.794;2023-05-07T01:22:53;13.30;;;6.40;;
5349;SDS011;2697;42.144;24.794;2023-05-07T01:25:20;12.10;;;5.97;;
5349;SDS011;2697;42.144;24.794;2023-05-07T01:27:45;11.43;;;7.03;;
5349;SDS011;2697;42.144;24.794;2023-05-07T01:30:11;10.80;;;5.70;;
5349;SDS011;2697;42.144;24.794;2023-05-07T01:32:41;12.90;;;7.07;;
5349;SDS011;2697;42.144;24.794;2023-05-07T01:35:22;13.57;;;6.57;;
5349;SDS011;2697;42.144;24.794;2023-05-07T01:37:51;10.57;;;6.63;;
5349;SDS011;2697;42.144;24.794;2023-05-07T01:40:18;18.33;;;8.80;;
5349;SDS011;2697;42.144;24.794;2023-05-07T01:42:44;18.13;;;9.63;;
5349;SDS011;2697;42.144;24.794;2023-05-07T01:45:10;16.67;;;10.00;;
5349;SDS011;2697;42.144;24.794;2023-05-07T01:47:37;13.60;;;8.00;;
5349;SDS011;2697;42.144;24.794;2023-05-07T01:50:03;25.80;;;9.10;;
5349;SDS011;2697;42.144;24.794;2023-05-07T01:52:31;19.50;;;9.20;;
5349;SDS011;2697;42.144;24.794;2023-05-07T01:54:56;22.03;;;10.77;;
5349;SDS011;2697;42.144;24.794;2023-05-07T01:57:22;18.00;;;9.50;;
5349;SDS011;2697;42.144;24.794;2023-05-07T01:59:47;18.07;;;9.77;;
5349;SDS011;2697;42.144;24.794;2023-05-07T02:02:12;19.57;;;9.03;;
5349;SDS011;2697;42.144;24.794;2023-05-07T02:04:38;16.53;;;9.57;;
5349;SDS011;2697;42.144;24.794;2023-05-07T02:07:03;20.00;;;9.83;;
5349;SDS011;2697;42.144;24.794;2023-05-07T02:09:30;18.57;;;9.60;;
5349;SDS011;2697;42.144;24.794;2023-05-07T02:11:55;19.73;;;9.23;;
5349;SDS011;2697;42.144;24.794;2023-05-07T02:14:20;19.43;;;9.67;;
5349;SDS011;2697;42.144;24.794;2023-05-07T02:16:46;18.43;;;10.30;;
5349;SDS011;2697;42.144;24.794;2023-05-07T02:19:11;15.50;;;8.73;;
5349;SDS011;2697;42.144;24.794;2023-05-07T02:21:36;14.87;;;9.57;;
5349;SDS011;2697;42.144;24.794;2023-05-07T02:24:02;26.20;;;11.67;;
5349;SDS011;2697;42.144;24.794;2023-05-07T02:26:27;18.40;;;9.80;;
5349;SDS011;2697;42.144;24.794;2023-05-07T02:28:52;17.37;;;10.30;;
5349;SDS011;2697;42.144;24.794;2023-05-07T02:31:18;21.27;;;10.50;;
5349;SDS011;2697;42.144;24.794;2023-05-07T02:33:44;31.87;;;11.33;;
5349;SDS011;2697;42.144;24.794;2023-05-07T02:36:10;22.30;;;10.60;;
5349;SDS011;2697;42.144;24.794;2023-05-07T02:38:36;24.43;;;12.40;;
5349;SDS011;2697;42.144;24.794;2023-05-07T02:41:02;17.57;;;10.67;;
5349;SDS011;2697;42.144;24.794;2023-05-07T02:43:28;23.40;;;11.23;;
5349;SDS011;2697;42.144;24.794;2023-05-07T02:46:00;16.47;;;10.50;;
5349;SDS011;2697;42.144;24.794;2023-05-07T02:48:30;13.77;;;9.50;;
5349;SDS011;2697;42.144;24.794;2023-05-07T02:50:55;21.83;;;10.30;;
5349;SDS011;2697;42.144;24.794;2023-05-07T02:53:21;19.53;;;10.27;;
5349;SDS011;2697;42.144;24.794;2023-05-07T02:55:46;21.70;;;9.43;;
5349;SDS011;2697;42.144;24.794;2023-05-07T02:58:11;23.40;;;9.93;;
5349;SDS011;2697;42.144;24.794;2023-05-07T03:00:37;16.30;;;9.70;;
5349;SDS011;2697;42.144;24.794;2023-05-07T03:03:02;18.30;;;10.50;;
5349;SDS011;2697;42.144;24.794;2023-05-07T03:05:27;17.03;;;10.43;;
5349;SDS011;2697;42.144;24.794;2023-05-07T03:07:53;16.10;;;10.00;;
5349;SDS011;2697;42.144;24.794;2023-05-07T03:10:18;20.37;;;12.40;;
5349;SDS011;2697;42.144;24.794;2023-05-07T03:12:44;16.53;;;9.53;;
5349;SDS011;2697;42.144;24.794;2023-05-07T03:15:09;22.30;;;11.20;;
5349;SDS011;2697;42.144;24.794;2023-05-07T03:17:36;17.60;;;10.20;;
5349;SDS011;2697;42.144;24.794;2023-05-07T03:20:01;19.80;;;10.30;;
5349;SDS011;2697;42.144;24.794;2023-05-07T03:22:27;13.43;;;9.17;;
5349;SDS011;2697;42.144;24.794;2023-05-07T03:24:52;18.60;;;10.13;;
5349;SDS011;2697;42.144;24.794;2023-05-07T03:27:18;12.30;;;8.90;;
5349;SDS011;2697;42.144;24.794;2023-05-07T03:29:43;20.50;;;10.80;;
5349;SDS011;2697;42.144;24.794;2023-05-07T03:32:09;17.20;;;9.80;;
5349;SDS011;2697;42.144;24.794;2023-05-07T03:34:34;18.13;;;10.27;;
5349;SDS011;2697;42.144;24.794;2023-05-07T03:36:59;20.37;;;9.47;;
5349;SDS011;2697;42.144;24.794;2023-05-07T03:39:25;13.23;;;9.07;;
5349;SDS011;2697;42.144;24.794;2023-05-07T03:41:50;15.77;;;8.40;;
5349;SDS011;2697;42.144;24.794;2023-05-07T03:44:16;15.37;;;9.30;;
5349;SDS011;2697;42.144;24.794;2023-05-07T03:46:41;13.87;;;8.53;;
5349;SDS011;2697;42.144;24.794;2023-05-07T03:49:06;13.50;;;8.63;;
5349;SDS011;2697;42.144;24.794;2023-05-07T03:51:32;22.17;;;7.43;;
5349;SDS011;2697;42.144;24.794;2023-05-07T03:53:57;13.40;;;7.90;;
5349;SDS011;2697;42.144;24.794;2023-05-07T03:56:23;13.37;;;7.60;;
5349;SDS011;2697;42.144;24.794;2023-05-07T03:58:51;15.20;;;6.30;;
5349;SDS011;2697;42.144;24.794;2023-05-07T04:01:17;9.30;;;6.23;;
5349;SDS011;2697;42.144;24.794;2023-05-07T04:03:42;10.77;;;6.20;;
5349;SDS011;2697;42.144;24.794;2023-05-07T04:06:07;14.10;;;6.20;;
5349;SDS011;2697;42.144;24.794;2023-05-07T04:08:33;13.27;;;6.00;;
5349;SDS011;2697;42.144;24.794;2023-05-07T04:10:58;20.20;;;7.20;;
5349;SDS011;2697;42.144;24.794;2023-05-07T04:13:24;10.97;;;6.70;;
5349;SDS011;2697;42.144;24.794;2023-05-07T04:15:51;9.33;;;5.17;;
5349;SDS011;2697;42.144;24.794;2023-05-07T04:18:17;13.23;;;6.30;;
5349;SDS011;2697;42.144;24.794;2023-05-07T04:20:42;13.90;;;6.83;;
5349;SDS011;2697;42.144;24.794;2023-05-07T04:23:07;12.83;;;5.90;;
5349;SDS011;2697;42.144;24.794;2023-05-07T04:25:33;13.23;;;6.90;;
5349;SDS011;2697;42.144;24.794;2023-05-07T04:27:59;24.10;;;7.00;;
5349;SDS011;2697;42.144;24.794;2023-05-07T04:30:24;12.57;;;6.37;;
5349;SDS011;2697;42.144;24.794;2023-05-07T04:32:50;15.73;;;6.63;;
5349;SDS011;2697;42.144;24.794;2023-05-07T04:35:15;12.10;;;6.50;;
5349;SDS011;2697;42.144;24.794;2023-05-07T04:37:41;11.40;;;6.70;;
5349;SDS011;2697;42.144;24.794;2023-05-07T04:40:07;11.33;;;7.07;;
5349;SDS011;2697;42.144;24.794;2023-05-07T04:42:32;21.37;;;6.43;;
5349;SDS011;2697;42.144;24.794;2023-05-07T04:44:58;8.57;;;5.17;;
5349;SDS011;2697;42.144;24.794;2023-05-07T04:47:23;8.83;;;6.30;;
5349;SDS011;2697;42.144;24.794;2023-05-07T04:49:49;13.30;;;6.00;;
5349;SDS011;2697;42.144;24.794;2023-05-07T04:52:14;11.50;;;6.97;;
5349;SDS011;2697;42.144;24.794;2023-05-07T04:54:40;10.37;;;6.50;;
5349;SDS011;2697;42.144;24.794;2023-05-07T04:57:05;10.33;;;5.90;;
5349;SDS011;2697;42.144;24.794;2023-05-07T04:59:31;12.23;;;5.40;;
5349;SDS011;2697;42.144;24.794;2023-05-07T05:01:57;14.70;;;6.37;;
5349;SDS011;2697;42.144;24.794;2023-05-07T05:04:22;13.00;;;6.47;;
5349;SDS011;2697;42.144;24.794;2023-05-07T05:06:48;13.23;;;6.23;;
5349;SDS011;2697;42.144;24.794;2023-05-07T05:09:13;10.10;;;6.30;;
5349;SDS011;2697;42.144;24.794;2023-05-07T05:11:39;9.50;;;6.40;;
5349;SDS011;2697;42.144;24.794;2023-05-07T05:14:05;12.23;;;6.40;;
5349;SDS011;2697;42.144;24.794;2023-05-07T05:16:30;10.33;;;6.50;;
5349;SDS011;2697;42.144;24.794;2023-05-07T05:18:55;9.33;;;6.13;;
5349;SDS011;2697;42.144;24.794;2023-05-07T05:21:21;11.27;;;6.97;;
5349;SDS011;2697;42.144;24.794;2023-05-07T05:23:46;8.47;;;6.50;;
5349;SDS011;2697;42.144;24.794;2023-05-07T05:26:12;7.93;;;5.73;;
5349;SDS011;2697;42.144;24.794;2023-05-07T05:28:37;7.60;;;4.60;;
5349;SDS011;2697;42.144;24.794;2023-05-07T05:31:03;15.90;;;7.27;;
5349;SDS011;2697;42.144;24.794;2023-05-07T05:33:29;14.90;;;6.73;;
5349;SDS011;2697;42.144;24.794;2023-05-07T05:35:55;8.23;;;5.47;;
5349;SDS011;2697;42.144;24.794;2023-05-07T05:38:20;10.37;;;6.27;;
5349;SDS011;2697;42.144;24.794;2023-05-07T05:40:46;10.60;;;6.40;;
5349;SDS011;2697;42.144;24.794;2023-05-07T05:43:11;10.53;;;5.17;;
5349;SDS011;2697;42.144;24.794;2023-05-07T05:45:37;9.57;;;5.73;;
5349;SDS011;2697;42.144;24.794;2023-05-07T05:48:02;9.57;;;5.23;;
5349;SDS011;2697;42.144;24.794;2023-05-07T05:50:28;30.03;;;5.83;;
5349;SDS011;2697;42.144;24.794;2023-05-07T05:52:53;9.07;;;5.53;;
5349;SDS011;2697;42.144;24.794;2023-05-07T05:55:18;9.00;;;5.27;;
5349;SDS011;2697;42.144;24.794;2023-05-07T05:57:44;15.00;;;5.50;;
5349;SDS011;2697;42.144;24.794;2023-05-07T06:00:10;11.33;;;4.67;;
5349;SDS011;2697;42.144;24.794;2023-05-07T06:02:36;14.60;;;5.37;;
5349;SDS011;2697;42.144;24.794;2023-05-07T06:05:01;15.80;;;6.67;;
5349;SDS011;2697;42.144;24.794;2023-05-07T06:07:28;10.67;;;7.00;;
5349;SDS011;2697;42.144;24.794;2023-05-07T06:09:53;11.90;;;6.97;;
5349;SDS011;2697;42.144;24.794;2023-05-07T06:12:20;10.70;;;6.53;;
5349;SDS011;2697;42.144;24.794;2023-05-07T06:14:46;9.53;;;5.70;;
5349;SDS011;2697;42.144;24.794;2023-05-07T06:17:11;17.20;;;6.23;;
5349;SDS011;2697;42.144;24.794;2023-05-07T06:19:36;14.50;;;5.77;;
5349;SDS011;2697;42.144;24.794;2023-05-07T06:22:02;11.30;;;6.00;;
5349;SDS011;2697;42.144;24.794;2023-05-07T06:24:27;6.90;;;5.17;;
5349;SDS011;2697;42.144;24.794;2023-05-07T06:26:53;10.23;;;5.88;;
5349;SDS011;2697;42.144;24.794;2023-05-07T06:29:19;15.00;;;6.00;;
5349;SDS011;2697;42.144;24.794;2023-05-07T06:31:44;11.77;;;6.20;;
5349;SDS011;2697;42.144;24.794;2023-05-07T06:34:09;6.20;;;5.30;;
5349;SDS011;2697;42.144;24.794;2023-05-07T06:36:39;11.00;;;5.90;;
5349;SDS011;2697;42.144;24.794;2023-05-07T06:39:04;9.87;;;5.40;;
5349;SDS011;2697;42.144;24.794;2023-05-07T06:41:30;18.25;;;6.75;;
5349;SDS011;2697;42.144;24.794;2023-05-07T06:43:55;11.85;;;5.65;;
5349;SDS011;2697;42.144;24.794;2023-05-07T06:46:20;12.23;;;5.90;;
5349;SDS011;2697;42.144;24.794;2023-05-07T06:48:46;9.55;;;5.90;;
5349;SDS011;2697;42.144;24.794;2023-05-07T06:51:11;16.55;;;6.00;;
5349;SDS011;2697;42.144;24.794;2023-05-07T06:53:36;6.30;;;5.05;;
5349;SDS011;2697;42.144;24.794;2023-05-07T06:56:02;13.18;;;5.28;;
5349;SDS011;2697;42.144;24.794;2023-05-07T06:58:27;17.13;;;6.90;;
5349;SDS011;2697;42.144;24.794;2023-05-07T07:00:53;12.10;;;5.40;;
5349;SDS011;2697;42.144;24.794;2023-05-07T07:03:18;11.63;;;6.10;;
5349;SDS011;2697;42.144;24.794;2023-05-07T07:05:43;18.77;;;6.40;;
5349;SDS011;2697;42.144;24.794;2023-05-07T07:08:09;14.03;;;6.40;;
5349;SDS011;2697;42.144;24.794;2023-05-07T07:10:35;9.93;;;6.53;;
5349;SDS011;2697;42.144;24.794;2023-05-07T07:13:00;11.03;;;6.33;;
5349;SDS011;2697;42.144;24.794;2023-05-07T07:15:26;19.37;;;5.57;;
5349;SDS011;2697;42.144;24.794;2023-05-07T07:17:51;9.17;;;6.10;;
5349;SDS011;2697;42.144;24.794;2023-05-07T07:20:16;9.83;;;6.53;;
5349;SDS011;2697;42.144;24.794;2023-05-07T07:22:42;16.70;;;6.97;;
5349;SDS011;2697;42.144;24.794;2023-05-07T07:25:07;12.80;;;6.60;;
5349;SDS011;2697;42.144;24.794;2023-05-07T07:27:33;21.60;;;6.90;;
5349;SDS011;2697;42.144;24.794;2023-05-07T07:29:59;12.10;;;7.03;;
5349;SDS011;2697;42.144;24.794;2023-05-07T07:32:24;16.77;;;5.93;;
5349;SDS011;2697;42.144;24.794;2023-05-07T07:34:50;15.10;;;6.07;;
5349;SDS011;2697;42.144;24.794;2023-05-07T07:37:16;10.20;;;5.30;;
5349;SDS011;2697;42.144;24.794;2023-05-07T07:39:41;15.27;;;6.40;;
5349;SDS011;2697;42.144;24.794;2023-05-07T07:42:06;21.77;;;6.83;;
5349;SDS011;2697;42.144;24.794;2023-05-07T07:44:32;12.83;;;7.37;;
5349;SDS011;2697;42.144;24.794;2023-05-07T07:46:57;7.97;;;5.80;;
5349;SDS011;2697;42.144;24.794;2023-05-07T07:49:22;13.40;;;5.23;;
5349;SDS011;2697;42.144;24.794;2023-05-07T07:51:48;8.93;;;6.00;;
5349;SDS011;2697;42.144;24.794;2023-05-07T07:54:13;8.07;;;5.20;;
5349;SDS011;2697;42.144;24.794;2023-05-07T07:56:39;10.67;;;6.43;;
5349;SDS011;2697;42.144;24.794;2023-05-07T07:59:04;14.60;;;6.13;;
5349;SDS011;2697;42.144;24.794;2023-05-07T08:01:30;17.07;;;6.67;;
5349;SDS011;2697;42.144;24.794;2023-05-07T08:03:55;14.20;;;5.50;;
5349;SDS011;2697;42.144;24.794;2023-05-07T08:06:23;18.33;;;7.30;;
5349;SDS011;2697;42.144;24.794;2023-05-07T08:08:49;13.07;;;6.03;;
5349;SDS011;2697;42.144;24.794;2023-05-07T08:11:14;7.17;;;4.87;;
5349;SDS011;2697;42.144;24.794;2023-05-07T08:13:39;12.23;;;4.90;;
5349;SDS011;2697;42.144;24.794;2023-05-07T08:16:05;7.53;;;4.93;;
5349;SDS011;2697;42.144;24.794;2023-05-07T08:18:30;7.63;;;4.57;;
5349;SDS011;2697;42.144;24.794;2023-05-07T08:20:56;18.47;;;5.03;;
5349;SDS011;2697;42.144;24.794;2023-05-07T08:23:21;15.17;;;3.90;;
5349;SDS011;2697;42.144;24.794;2023-05-07T08:25:47;15.00;;;4.70;;
5349;SDS011;2697;42.144;24.794;2023-05-07T08:28:14;13.13;;;4.57;;
5349;SDS011;2697;42.144;24.794;2023-05-07T08:30:39;9.03;;;5.07;;
5349;SDS011;2697;42.144;24.794;2023-05-07T08:33:05;8.60;;;4.40;;
5349;SDS011;2697;42.144;24.794;2023-05-07T08:35:30;13.60;;;5.37;;
5349;SDS011;2697;42.144;24.794;2023-05-07T08:37:56;8.13;;;4.90;;
5349;SDS011;2697;42.144;24.794;2023-05-07T08:40:23;7.53;;;4.40;;
5349;SDS011;2697;42.144;24.794;2023-05-07T08:42:51;5.70;;;3.70;;
5349;SDS011;2697;42.144;24.794;2023-05-07T08:45:18;10.07;;;5.00;;
5349;SDS011;2697;42.144;24.794;2023-05-07T08:47:46;11.27;;;4.53;;
5349;SDS011;2697;42.144;24.794;2023-05-07T08:50:16;8.00;;;4.57;;
5349;SDS011;2697;42.144;24.794;2023-05-07T08:52:42;8.93;;;4.13;;
5349;SDS011;2697;42.144;24.794;2023-05-07T08:55:08;13.20;;;5.07;;
5349;SDS011;2697;42.144;24.794;2023-05-07T08:57:34;9.60;;;4.10;;
5349;SDS011;2697;42.144;24.794;2023-05-07T09:00:00;5.77;;;4.47;;
5349;SDS011;2697;42.144;24.794;2023-05-07T09:02:26;20.00;;;4.30;;
5349;SDS011;2697;42.144;24.794;2023-05-07T09:04:51;7.17;;;4.00;;
5349;SDS011;2697;42.144;24.794;2023-05-07T09:07:18;13.20;;;3.87;;
5349;SDS011;2697;42.144;24.794;2023-05-07T09:09:44;12.33;;;3.23;;
5349;SDS011;2697;42.144;24.794;2023-05-07T09:12:10;6.53;;;3.20;;
5349;SDS011;2697;42.144;24.794;2023-05-07T09:14:35;13.93;;;3.37;;
5349;SDS011;2697;42.144;24.794;2023-05-07T09:17:01;9.53;;;3.10;;
5349;SDS011;2697;42.144;24.794;2023-05-07T09:19:26;6.10;;;3.00;;
5349;SDS011;2697;42.144;24.794;2023-05-07T09:22:02;14.47;;;3.10;;
5349;SDS011;2697;42.144;24.794;2023-05-07T09:24:28;6.83;;;2.97;;
5349;SDS011;2697;42.144;24.794;2023-05-07T09:26:58;9.90;;;3.53;;
5349;SDS011;2697;42.144;24.794;2023-05-07T09:29:25;13.97;;;4.00;;
5349;SDS011;2697;42.144;24.794;2023-05-07T09:31:51;5.93;;;3.27;;
5349;SDS011;2697;42.144;24.794;2023-05-07T09:34:16;17.83;;;3.23;;
5349;SDS011;2697;42.144;24.794;2023-05-07T09:36:41;4.00;;;3.53;;
5349;SDS011;2697;42.144;24.794;2023-05-07T09:39:07;12.13;;;2.73;;
5349;SDS011;2697;42.144;24.794;2023-05-07T09:41:32;5.10;;;2.90;;
5349;SDS011;2697;42.144;24.794;2023-05-07T09:44:07;5.00;;;2.60;;
5349;SDS011;2697;42.144;24.794;2023-05-07T09:46:33;5.60;;;2.80;;
5349;SDS011;2697;42.144;24.794;2023-05-07T09:49:01;5.97;;;2.90;;
5349;SDS011;2697;42.144;24.794;2023-05-07T09:51:30;9.20;;;3.73;;
5349;SDS011;2697;42.144;24.794;2023-05-07T09:54:03;8.30;;;3.80;;
5349;SDS011;2697;42.144;24.794;2023-05-07T09:56:29;4.90;;;3.10;;
5349;SDS011;2697;42.144;24.794;2023-05-07T09:58:57;5.27;;;3.20;;
5349;SDS011;2697;42.144;24.794;2023-05-07T10:01:25;7.03;;;3.37;;
5349;SDS011;2697;42.144;24.794;2023-05-07T10:03:52;8.50;;;3.37;;
5349;SDS011;2697;42.144;24.794;2023-05-07T10:06:19;4.60;;;3.17;;
5349;SDS011;2697;42.144;24.794;2023-05-07T10:08:45;5.20;;;3.17;;
5349;SDS011;2697;42.144;24.794;2023-05-07T10:11:13;6.00;;;2.87;;
5349;SDS011;2697;42.144;24.794;2023-05-07T10:13:39;11.50;;;3.60;;
5349;SDS011;2697;42.144;24.794;2023-05-07T10:16:06;3.17;;;2.40;;
5349;SDS011;2697;42.144;24.794;2023-05-07T10:18:32;9.67;;;4.60;;
5349;SDS011;2697;42.144;24.794;2023-05-07T10:21:01;5.00;;;3.23;;
5349;SDS011;2697;42.144;24.794;2023-05-07T10:23:33;12.60;;;2.93;;
5349;SDS011;2697;42.144;24.794;2023-05-07T10:25:59;4.90;;;2.83;;
5349;SDS011;2697;42.144;24.794;2023-05-07T10:28:29;17.30;;;3.53;;
5349;SDS011;2697;42.144;24.794;2023-05-07T10:31:14;4.33;;;3.10;;
5349;SDS011;2697;42.144;24.794;2023-05-07T10:33:51;4.40;;;2.83;;
5349;SDS011;2697;42.144;24.794;2023-05-07T10:36:18;3.73;;;2.53;;
5349;SDS011;2697;42.144;24.794;2023-05-07T10:38:44;7.73;;;2.93;;
5349;SDS011;2697;42.144;24.794;2023-05-07T10:41:11;3.83;;;3.10;;
5349;SDS011;2697;42.144;24.794;2023-05-07T10:43:43;5.90;;;2.70;;
5349;SDS011;2697;42.144;24.794;2023-05-07T10:46:20;4.63;;;2.47;;
5349;SDS011;2697;42.144;24.794;2023-05-07T10:51:28;13.43;;;2.60;;
5349;SDS011;2697;42.144;24.794;2023-05-07T10:56:39;17.80;;;3.23;;
5349;SDS011;2697;42.144;24.794;2023-05-07T11:04:28;7.00;;;2.50;;
5349;SDS011;2697;42.144;24.794;2023-05-07T11:12:32;11.33;;;2.73;;
5349;SDS011;2697;42.144;24.794;2023-05-07T11:17:31;9.43;;;2.43;;
5349;SDS011;2697;42.144;24.794;2023-05-07T11:19:59;6.63;;;2.70;;
5349;SDS011;2697;42.144;24.794;2023-05-07T11:25:00;2.80;;;2.50;;
5349;SDS011;2697;42.144;24.794;2023-05-07T11:27:27;8.30;;;2.87;;
5349;SDS011;2697;42.144;24.794;2023-05-07T11:29:52;8.10;;;2.47;;
5349;SDS011;2697;42.144;24.794;2023-05-07T11:32:24;11.50;;;2.80;;
5349;SDS011;2697;42.144;24.794;2023-05-07T11:34:51;3.70;;;2.33;;
5349;SDS011;2697;42.144;24.794;2023-05-07T11:37:18;6.80;;;2.83;;
5349;SDS011;2697;42.144;24.794;2023-05-07T11:39:44;2.87;;;2.63;;
5349;SDS011;2697;42.144;24.794;2023-05-07T11:42:29;8.20;;;2.97;;
5349;SDS011;2697;42.144;24.794;2023-05-07T11:44:56;4.90;;;2.67;;
5349;SDS011;2697;42.144;24.794;2023-05-07T11:47:22;4.20;;;2.77;;
5349;SDS011;2697;42.144;24.794;2023-05-07T11:49:51;7.80;;;3.57;;
5349;SDS011;2697;42.144;24.794;2023-05-07T11:52:19;7.33;;;2.60;;
5349;SDS011;2697;42.144;24.794;2023-05-07T11:54:52;11.53;;;2.73;;
5349;SDS011;2697;42.144;24.794;2023-05-07T11:57:19;11.57;;;1.93;;
5349;SDS011;2697;42.144;24.794;2023-05-07T11:59:45;8.70;;;2.90;;
5349;SDS011;2697;42.144;24.794;2023-05-07T12:02:13;5.53;;;2.90;;
5349;SDS011;2697;42.144;24.794;2023-05-07T12:04:39;3.27;;;2.33;;
5349;SDS011;2697;42.144;24.794;2023-05-07T12:07:04;6.70;;;2.83;;
5349;SDS011;2697;42.144;24.794;2023-05-07T12:09:32;7.60;;;2.70;;
5349;SDS011;2697;42.144;24.794;2023-05-07T12:12:02;2.60;;;2.40;;
5349;SDS011;2697;42.144;24.794;2023-05-07T12:14:28;6.77;;;3.57;;
5349;SDS011;2697;42.144;24.794;2023-05-07T12:16:54;3.53;;;2.10;;
5349;SDS011;2697;42.144;24.794;2023-05-07T12:19:20;3.30;;;2.80;;
5349;SDS011;2697;42.144;24.794;2023-05-07T12:21:45;4.70;;;2.70;;
5349;SDS011;2697;42.144;24.794;2023-05-07T12:24:11;7.60;;;2.90;;
5349;SDS011;2697;42.144;24.794;2023-05-07T12:26:37;9.33;;;2.80;;
5349;SDS011;2697;42.144;24.794;2023-05-07T12:29:03;6.80;;;2.63;;
5349;SDS011;2697;42.144;24.794;2023-05-07T12:31:29;5.80;;;2.90;;
5349;SDS011;2697;42.144;24.794;2023-05-07T12:33:55;5.10;;;2.93;;
5349;SDS011;2697;42.144;24.794;2023-05-07T12:36:20;5.40;;;2.43;;
5349;SDS011;2697;42.144;24.794;2023-05-07T12:38:46;7.37;;;2.80;;
5349;SDS011;2697;42.144;24.794;2023-05-07T12:41:15;8.03;;;2.77;;
5349;SDS011;2697;42.144;24.794;2023-05-07T12:43:43;5.37;;;2.80;;
5349;SDS011;2697;42.144;24.794;2023-05-07T12:46:09;7.03;;;2.43;;
5349;SDS011;2697;42.144;24.794;2023-05-07T12:48:38;6.13;;;2.43;;
5349;SDS011;2697;42.144;24.794;2023-05-07T12:51:08;4.20;;;2.17;;
5349;SDS011;2697;42.144;24.794;2023-05-07T12:53:39;3.30;;;2.33;;
5349;SDS011;2697;42.144;24.794;2023-05-07T12:56:05;13.77;;;2.60;;
5349;SDS011;2697;42.144;24.794;2023-05-07T12:58:33;11.13;;;3.57;;
5349;SDS011;2697;42.144;24.794;2023-05-07T13:01:01;16.93;;;4.30;;
5349;SDS011;2697;42.144;24.794;2023-05-07T13:03:31;3.47;;;2.87;;
5349;SDS011;2697;42.144;24.794;2023-05-07T13:05:58;7.23;;;2.60;;
5349;SDS011;2697;42.144;24.794;2023-05-07T13:08:32;3.27;;;2.10;;
5349;SDS011;2697;42.144;24.794;2023-05-07T13:10:59;4.13;;;2.60;;
5349;SDS011;2697;42.144;24.794;2023-05-07T13:13:28;7.07;;;2.50;;
5349;SDS011;2697;42.144;24.794;2023-05-07T13:15:57;5.50;;;2.37;;
5349;SDS011;2697;42.144;24.794;2023-05-07T13:18:24;2.80;;;2.20;;
5349;SDS011;2697;42.144;24.794;2023-05-07T13:20:50;4.20;;;2.70;;
5349;SDS011;2697;42.144;24.794;2023-05-07T13:23:16;4.60;;;2.20;;
5349;SDS011;2697;42.144;24.794;2023-05-07T13:25:41;7.70;;;2.20;;
5349;SDS011;2697;42.144;24.794;2023-05-07T13:28:06;8.90;;;1.83;;
5349;SDS011;2697;42.144;24.794;2023-05-07T13:30:32;6.07;;;2.23;;
5349;SDS011;2697;42.144;24.794;2023-05-07T13:32:57;2.23;;;1.63;;
5349;SDS011;2697;42.144;24.794;2023-05-07T13:35:23;4.67;;;1.97;;
5349;SDS011;2697;42.144;24.794;2023-05-07T13:37:48;3.40;;;1.80;;
5349;SDS011;2697;42.144;24.794;2023-05-07T13:40:14;3.03;;;2.33;;
5349;SDS011;2697;42.144;24.794;2023-05-07T13:42:40;2.53;;;2.00;;
5349;SDS011;2697;42.144;24.794;2023-05-07T13:45:06;2.50;;;2.10;;
5349;SDS011;2697;42.144;24.794;2023-05-07T13:47:32;5.30;;;2.63;;
5349;SDS011;2697;42.144;24.794;2023-05-07T13:49:57;3.63;;;2.17;;
5349;SDS011;2697;42.144;24.794;2023-05-07T13:52:23;3.83;;;1.53;;
5349;SDS011;2697;42.144;24.794;2023-05-07T13:54:48;2.40;;;2.17;;
5349;SDS011;2697;42.144;24.794;2023-05-07T13:57:13;2.60;;;1.50;;
5349;SDS011;2697;42.144;24.794;2023-05-07T13:59:40;4.03;;;1.93;;
5349;SDS011;2697;42.144;24.794;2023-05-07T14:02:06;2.60;;;2.37;;
5349;SDS011;2697;42.144;24.794;2023-05-07T14:04:31;2.57;;;1.50;;
5349;SDS011;2697;42.144;24.794;2023-05-07T14:06:56;3.00;;;2.37;;
5349;SDS011;2697;42.144;24.794;2023-05-07T14:09:22;3.93;;;1.73;;
5349;SDS011;2697;42.144;24.794;2023-05-07T14:11:47;3.50;;;2.10;;
5349;SDS011;2697;42.144;24.794;2023-05-07T14:14:16;4.50;;;1.80;;
5349;SDS011;2697;42.144;24.794;2023-05-07T14:16:42;8.40;;;2.00;;
5349;SDS011;2697;42.144;24.794;2023-05-07T14:19:07;3.07;;;2.20;;
5349;SDS011;2697;42.144;24.794;2023-05-07T14:21:32;2.70;;;2.10;;
5349;SDS011;2697;42.144;24.794;2023-05-07T14:23:58;4.50;;;1.80;;
5349;SDS011;2697;42.144;24.794;2023-05-07T14:26:24;13.93;;;1.93;;
5349;SDS011;2697;42.144;24.794;2023-05-07T14:28:52;2.13;;;1.90;;
5349;SDS011;2697;42.144;24.794;2023-05-07T14:31:19;2.30;;;1.50;;
5349;SDS011;2697;42.144;24.794;2023-05-07T14:33:45;4.33;;;2.00;;
5349;SDS011;2697;42.144;24.794;2023-05-07T14:36:11;3.70;;;2.30;;
5349;SDS011;2697;42.144;24.794;2023-05-07T14:38:36;2.43;;;1.80;;
5349;SDS011;2697;42.144;24.794;2023-05-07T14:41:01;2.37;;;1.90;;
5349;SDS011;2697;42.144;24.794;2023-05-07T14:43:27;2.33;;;1.87;;
5349;SDS011;2697;42.144;24.794;2023-05-07T14:45:52;6.93;;;1.97;;
5349;SDS011;2697;42.144;24.794;2023-05-07T14:48:17;5.50;;;1.87;;
5349;SDS011;2697;42.144;24.794;2023-05-07T14:50:43;14.67;;;1.93;;
5349;SDS011;2697;42.144;24.794;2023-05-07T14:53:08;5.10;;;2.00;;
5349;SDS011;2697;42.144;24.794;2023-05-07T14:55:34;2.37;;;2.00;;
5349;SDS011;2697;42.144;24.794;2023-05-07T14:57:59;4.50;;;2.40;;
5349;SDS011;2697;42.144;24.794;2023-05-07T15:00:25;5.17;;;1.90;;
5349;SDS011;2697;42.144;24.794;2023-05-07T15:02:50;3.80;;;2.20;;
5349;SDS011;2697;42.144;24.794;2023-05-07T15:05:16;7.67;;;2.47;;
5349;SDS011;2697;42.144;24.794;2023-05-07T15:07:43;2.03;;;1.60;;